Time;durP1;ratioP1;P1;durP2;ratioP2;P2;SDS_P1;SDS_P2;PMS_P1;PMS_P2;Temp;Humidity;BMP_temperature;BMP_pressure;BME280_temperature;BME280_humidity;BME280_pressure;Samples;Min_cycle;Max_cycle;Signal;HPM_P1;HPM_P2
2023/11/29 00:00:16;;;;;;;0.98;0.70;;;20.50;54.70;;;;;;5019516;28;20029;-63
2023/11/29 00:02:42;;;;;;;1.63;0.80;;;20.50;54.70;;;;;;5034473;28;20029;-63
2023/11/29 00:05:08;;;;;;;1.80;0.90;;;20.50;54.70;;;;;;5036046;28;20037;-63
2023/11/29 00:07:35;;;;;;;1.70;0.85;;;20.50;54.70;;;;;;5034821;28;20025;-64
2023/11/29 00:10:00;;;;;;;1.77;0.90;;;20.40;54.70;;;;;;5017910;28;20826;-63
2023/11/29 00:12:26;;;;;;;1.40;0.95;;;20.40;54.70;;;;;;5016737;28;20038;-62
2023/11/29 00:14:52;;;;;;;1.33;0.70;;;20.40;54.70;;;;;;5037611;28;20029;-65
2023/11/29 00:17:17;;;;;;;1.33;0.70;;;20.40;54.70;;;;;;5036299;28;20025;-64
2023/11/29 00:19:43;;;;;;;1.10;0.63;;;20.40;54.70;;;;;;5035750;28;20517;-63
2023/11/29 00:22:12;;;;;;;1.42;0.80;;;20.40;54.80;;;;;;5033588;28;20024;-63
2023/11/29 00:24:38;;;;;;;1.35;0.70;;;20.30;54.70;;;;;;5017028;28;20105;-63
2023/11/29 00:27:04;;;;;;;1.13;0.70;;;20.30;54.70;;;;;;5038614;28;20053;-77
2023/11/29 00:29:30;;;;;;;1.55;0.80;;;20.30;54.80;;;;;;5036608;28;20029;-74
2023/11/29 00:31:56;;;;;;;1.30;0.82;;;20.30;54.70;;;;;;5027242;28;20946;-75
2023/11/29 00:34:22;;;;;;;1.25;0.68;;;20.30;54.80;;;;;;5034997;28;20025;-75
2023/11/29 00:36:49;;;;;;;1.20;0.60;;;20.30;54.80;;;;;;5037031;28;20213;-76
2023/11/29 00:39:15;;;;;;;1.50;0.80;;;20.30;54.80;;;;;;5034213;28;20017;-75
2023/11/29 00:41:42;;;;;;;1.80;0.90;;;20.30;54.80;;;;;;5035217;28;20448;-75
2023/11/29 00:44:08;;;;;;;0.80;0.60;;;20.20;54.80;;;;;;5038245;28;20025;-75
2023/11/29 00:46:34;;;;;;;1.17;0.77;;;20.20;54.80;;;;;;5039750;28;20100;-74
2023/11/29 00:48:59;;;;;;;1.42;0.90;;;20.20;54.80;;;;;;5040584;28;20587;-76
2023/11/29 00:51:26;;;;;;;1.80;0.90;;;20.20;54.80;;;;;;5036866;28;20044;-74
2023/11/29 00:53:52;;;;;;;0.80;0.70;;;20.20;54.80;;;;;;5040719;28;20518;-75
2023/11/29 00:56:17;;;;;;;1.40;0.73;;;20.20;54.80;;;;;;5021219;28;20041;-65
2023/11/29 00:58:43;;;;;;;1.13;0.70;;;20.10;54.80;;;;;;5038210;28;20022;-64
2023/11/29 01:01:08;;;;;;;1.13;0.70;;;20.20;54.90;;;;;;5039884;28;20552;-65
2023/11/29 01:03:34;;;;;;;0.90;0.70;;;20.20;54.90;;;;;;5036532;28;20120;-64
2023/11/29 01:06:00;;;;;;;1.20;0.80;;;20.10;54.90;;;;;;5039489;28;20056;-65
2023/11/29 01:08:26;;;;;;;1.45;0.90;;;20.10;54.80;;;;;;5040458;28;20512;-64
2023/11/29 01:10:52;;;;;;;1.67;0.90;;;20.10;54.90;;;;;;5036924;28;20025;-64
2023/11/29 01:13:19;;;;;;;0.95;0.68;;;20.10;54.90;;;;;;5038995;28;20034;-66
2023/11/29 01:15:49;;;;;;;1.30;0.70;;;20.10;54.90;;;;;;5038075;28;20021;-64
2023/11/29 01:18:15;;;;;;;;;;;20.10;55.00;;;;;;5039123;28;20480;-65
2023/11/29 01:20:44;;;;;;;1.88;0.95;;;20.00;54.90;;;;;;5037938;28;19905;-66
2023/11/29 01:23:10;;;;;;;1.08;0.70;;;20.00;54.90;;;;;;5040354;28;20412;-64
2023/11/29 01:25:36;;;;;;;0.77;0.60;;;20.00;54.90;;;;;;5038238;28;20021;-64
2023/11/29 01:28:03;;;;;;;1.20;0.80;;;20.00;54.90;;;;;;5022672;28;20108;-65
2023/11/29 01:30:29;;;;;;;1.13;0.70;;;20.00;55.00;;;;;;5022427;28;20025;-64
2023/11/29 01:32:55;;;;;;;2.00;0.80;;;20.00;54.90;;;;;;5033851;28;20652;-65
2023/11/29 01:35:20;;;;;;;0.98;0.63;;;20.00;55.00;;;;;;5038705;28;20069;-65
2023/11/29 01:37:46;;;;;;;1.35;0.75;;;20.00;55.00;;;;;;5038248;28;20029;-65
2023/11/29 01:40:11;;;;;;;2.13;1.00;;;19.90;55.00;;;;;;5021114;28;20074;-62
2023/11/29 01:42:38;;;;;;;1.40;0.77;;;19.90;55.00;;;;;;5038548;28;20055;-62
2023/11/29 01:45:04;;;;;;;0.70;0.60;;;19.90;55.00;;;;;;5038339;28;20108;-62
2023/11/29 01:47:36;;;;;;;0.95;0.70;;;19.90;55.20;;;;;;5038889;28;20039;-65
2023/11/29 01:50:03;;;;;;;1.23;0.77;;;19.90;55.00;;;;;;5038037;28;20389;-64
2023/11/29 01:52:33;;;;;;;1.05;0.70;;;19.90;55.00;;;;;;5035533;28;20029;-63
2023/11/29 01:54:59;;;;;;;1.23;0.70;;;19.90;55.00;;;;;;5033730;28;20497;-62
2023/11/29 01:57:25;;;;;;;1.50;0.85;;;19.80;55.00;;;;;;5038730;28;20028;-63
2023/11/29 01:59:51;;;;;;;1.38;0.80;;;19.80;55.00;;;;;;5038215;28;20021;-62
2023/11/29 02:02:17;;;;;;;1.10;0.70;;;19.80;55.00;;;;;;5037840;28;20059;-63
2023/11/29 02:04:44;;;;;;;1.20;0.70;;;19.80;55.00;;;;;;5037349;28;20362;-62
2023/11/29 02:07:11;;;;;;;1.05;0.68;;;19.80;55.00;;;;;;5037080;28;20047;-63
2023/11/29 02:09:38;;;;;;;1.13;0.80;;;19.80;55.00;;;;;;5037259;28;20032;-65
2023/11/29 02:12:05;;;;;;;0.75;0.70;;;19.80;55.10;;;;;;5038610;28;20022;-63
2023/11/29 02:14:31;;;;;;;1.10;0.75;;;19.80;55.10;;;;;;5038037;28;20303;-63
2023/11/29 02:16:56;;;;;;;1.20;0.70;;;19.80;55.10;;;;;;5018412;28;20033;-64
2023/11/29 02:19:22;;;;;;;1.08;0.70;;;19.70;55.00;;;;;;5020193;28;20029;-63
2023/11/29 02:21:48;;;;;;;1.17;0.70;;;19.80;55.10;;;;;;5019956;28;20033;-63
2023/11/29 02:24:18;;;;;;;1.67;0.80;;;19.80;55.10;;;;;;5036566;28;20057;-62
2023/11/29 02:26:44;;;;;;;1.13;0.68;;;19.70;55.10;;;;;;5022549;28;20041;-63
2023/11/29 02:29:10;;;;;;;1.10;0.80;;;19.70;55.10;;;;;;5021693;28;20529;-62
2023/11/29 02:31:36;;;;;;;1.15;0.60;;;19.70;55.10;;;;;;5030095;27;20032;-63
2023/11/29 02:34:03;;;;;;;1.08;0.70;;;19.70;55.10;;;;;;5034646;28;20022;-64
2023/11/29 02:36:30;;;;;;;1.00;0.70;;;19.70;55.10;;;;;;5036074;28;20017;-62
2023/11/29 02:38:55;;;;;;;1.50;0.70;;;19.70;55.10;;;;;;5021674;28;20030;-63
2023/11/29 02:41:21;;;;;;;1.17;0.70;;;19.70;55.10;;;;;;5035447;28;20037;-63
2023/11/29 02:43:50;;;;;;;1.30;0.70;;;19.70;55.10;;;;;;5036852;28;20564;-63
2023/11/29 02:46:16;;;;;;;1.30;0.70;;;19.70;55.10;;;;;;5038009;28;20607;-66
2023/11/29 02:48:42;;;;;;;0.80;0.70;;;19.70;55.10;;;;;;5039375;28;20503;-65
2023/11/29 02:51:07;;;;;;;0.93;0.70;;;19.60;55.10;;;;;;5036706;28;20069;-64
2023/11/29 02:53:33;;;;;;;0.73;0.60;;;19.70;55.20;;;;;;5035918;28;20033;-64
2023/11/29 02:55:59;;;;;;;1.00;0.70;;;19.60;55.10;;;;;;5016206;28;20497;-64
2023/11/29 02:58:24;;;;;;;0.60;0.60;;;19.60;55.10;;;;;;5033997;28;20025;-64
2023/11/29 03:00:50;;;;;;;0.88;0.70;;;19.60;55.10;;;;;;5034334;28;20052;-66
2023/11/29 03:03:15;;;;;;;0.95;0.80;;;19.60;55.10;;;;;;5037437;28;20108;-64
2023/11/29 03:05:41;;;;;;;0.73;0.60;;;19.60;55.20;;;;;;5019907;28;20029;-65
2023/11/29 03:08:07;;;;;;;0.95;0.70;;;19.60;55.20;;;;;;5035002;28;20101;-64
2023/11/29 03:10:34;;;;;;;0.95;0.70;;;19.60;55.20;;;;;;5019556;28;20035;-65
2023/11/29 03:13:00;;;;;;;0.95;0.65;;;19.60;55.20;;;;;;5035615;28;20480;-64
2023/11/29 03:15:25;;;;;;;0.63;0.60;;;19.60;55.20;;;;;;5020044;28;20024;-64
2023/11/29 03:17:51;;;;;;;1.35;0.70;;;19.60;55.20;;;;;;5038475;28;20028;-72
2023/11/29 03:20:17;;;;;;;0.73;0.52;;;19.50;55.20;;;;;;5030327;27;20119;-72
2023/11/29 03:22:42;;;;;;;0.93;0.70;;;19.50;55.20;;;;;;5035256;28;20032;-71
2023/11/29 03:25:08;;;;;;;0.88;0.65;;;19.50;55.20;;;;;;5032726;28;20101;-71
2023/11/29 03:27:34;;;;;;;0.60;0.60;;;19.50;55.20;;;;;;5036101;28;20040;-71
2023/11/29 03:29:59;;;;;;;0.60;0.52;;;19.50;55.30;;;;;;5037580;28;20104;-71
2023/11/29 03:32:26;;;;;;;0.70;0.50;;;19.50;55.30;;;;;;5028583;28;20218;-71
2023/11/29 03:34:54;;;;;;;0.80;0.60;;;19.50;55.30;;;;;;5036845;28;20028;-71
2023/11/29 03:37:20;;;;;;;0.77;0.63;;;19.50;55.40;;;;;;5034931;28;20026;-70
2023/11/29 03:39:46;;;;;;;0.90;0.70;;;19.50;55.30;;;;;;5018330;28;20036;-71
2023/11/29 03:42:11;;;;;;;1.20;0.60;;;19.40;55.30;;;;;;5018795;28;20029;-71
2023/11/29 03:44:37;;;;;;;0.75;0.60;;;19.40;55.30;;;;;;5035188;28;20057;-72
2023/11/29 03:47:03;;;;;;;1.10;0.70;;;19.40;55.40;;;;;;5035907;28;20053;-71
2023/11/29 03:49:28;;;;;;;0.80;0.60;;;19.40;55.40;;;;;;5038697;28;20045;-71
2023/11/29 03:51:54;;;;;;;0.82;0.60;;;19.40;55.40;;;;;;5034599;28;20033;-70
2023/11/29 03:54:20;;;;;;;1.00;0.73;;;19.40;55.40;;;;;;5035335;28;20521;-70
2023/11/29 03:56:45;;;;;;;0.77;0.63;;;19.40;55.40;;;;;;5035920;28;20056;-68
2023/11/29 03:59:11;;;;;;;0.70;0.60;;;19.40;55.40;;;;;;5037310;28;20468;-68
2023/11/29 04:01:36;;;;;;;0.90;0.60;;;19.40;55.40;;;;;;5036568;28;20040;-68
2023/11/29 04:04:02;;;;;;;0.93;0.70;;;19.40;55.50;;;;;;5037164;28;20037;-68
2023/11/29 04:06:28;;;;;;;1.00;0.63;;;19.40;55.50;;;;;;5033871;28;20029;-68
2023/11/29 04:08:55;;;;;;;0.90;0.60;;;19.40;55.50;;;;;;5036811;28;20349;-68
2023/11/29 04:11:21;;;;;;;0.85;0.68;;;19.40;55.50;;;;;;5033659;28;20025;-68
2023/11/29 04:13:47;;;;;;;0.70;0.60;;;19.40;55.50;;;;;;5037574;28;20025;-68
2023/11/29 04:16:27;;;;;;;1.25;0.70;;;19.40;55.50;;;;;;5036915;28;20025;-68
2023/11/29 04:18:53;;;;;;;;;;;19.40;55.50;;;;;;5034191;28;20022;-68
2023/11/29 04:21:27;;;;;;;0.93;0.63;;;19.30;55.50;;;;;;5034310;28;20367;-68
2023/11/29 04:23:53;;;;;;;0.63;0.63;;;19.30;55.40;;;;;;5033264;28;20082;-68
2023/11/29 04:26:29;;;;;;;0.70;0.63;;;19.40;55.50;;;;;;5032004;28;20037;-68
2023/11/29 04:28:55;;;;;;;0.50;0.50;;;19.30;55.50;;;;;;5034471;28;20492;-71
2023/11/29 04:31:21;;;;;;;0.98;0.80;;;19.30;55.50;;;;;;5033843;28;20480;-71
2023/11/29 04:33:46;;;;;;;0.60;0.50;;;19.30;55.50;;;;;;5036856;28;20021;-71
2023/11/29 04:36:12;;;;;;;0.50;0.47;;;19.30;55.50;;;;;;5017440;28;20053;-72
2023/11/29 04:38:38;;;;;;;0.98;0.68;;;19.30;55.50;;;;;;5018615;28;20135;-71
2023/11/29 04:41:04;;;;;;;1.10;0.60;;;19.30;55.50;;;;;;5033293;28;20078;-71
2023/11/29 04:43:30;;;;;;;0.98;0.60;;;19.30;55.50;;;;;;5024786;28;20033;-71
2023/11/29 04:45:56;;;;;;;0.65;0.50;;;19.30;55.50;;;;;;5018077;28;20025;-71
2023/11/29 04:48:22;;;;;;;0.80;0.60;;;19.30;55.50;;;;;;5034885;28;20029;-68
2023/11/29 04:50:48;;;;;;;0.85;0.57;;;19.30;55.50;;;;;;5019444;28;20040;-68
2023/11/29 04:53:14;;;;;;;0.77;0.50;;;19.30;55.50;;;;;;5034909;28;20065;-67
2023/11/29 04:55:39;;;;;;;0.75;0.50;;;19.30;55.50;;;;;;5017780;28;20086;-67
2023/11/29 04:58:05;;;;;;;0.90;0.70;;;19.30;55.50;;;;;;5032574;28;20029;-68
2023/11/29 05:00:31;;;;;;;0.68;0.45;;;19.30;55.50;;;;;;5033336;28;20499;-68
2023/11/29 05:02:57;;;;;;;0.63;0.47;;;19.30;55.50;;;;;;5034899;28;20021;-68
2023/11/29 05:05:23;;;;;;;0.60;0.50;;;19.30;55.50;;;;;;5035191;28;20112;-68
2023/11/29 05:07:49;;;;;;;0.60;0.50;;;19.30;55.50;;;;;;5032587;28;20037;-68
2023/11/29 05:10:14;;;;;;;1.10;0.70;;;19.30;55.50;;;;;;5035100;28;20082;-67
2023/11/29 05:12:40;;;;;;;0.82;0.57;;;19.30;55.50;;;;;;5035887;28;20039;-67
2023/11/29 05:15:07;;;;;;;0.80;0.50;;;19.30;55.50;;;;;;5033544;28;20533;-67
2023/11/29 05:17:33;;;;;;;0.80;0.68;;;19.30;55.50;;;;;;5036238;28;20380;-67
2023/11/29 05:19:59;;;;;;;0.52;0.52;;;19.20;55.50;;;;;;5035055;28;20033;-68
2023/11/29 05:22:24;;;;;;;0.50;0.50;;;19.30;55.60;;;;;;5036777;28;20029;-68
2023/11/29 05:24:50;;;;;;;0.55;0.55;;;19.20;55.50;;;;;;5017474;28;20033;-68
2023/11/29 05:27:16;;;;;;;1.35;0.55;;;19.20;55.60;;;;;;5032693;28;20041;-68
2023/11/29 05:29:41;;;;;;;0.80;0.50;;;19.20;55.60;;;;;;5037233;28;20065;-67
2023/11/29 05:32:07;;;;;;;1.17;0.68;;;19.20;55.60;;;;;;5038632;28;20418;-68
2023/11/29 05:34:33;;;;;;;0.60;0.50;;;19.20;55.60;;;;;;5037384;28;20025;-67
2023/11/29 05:36:59;;;;;;;0.70;0.57;;;19.20;55.70;;;;;;5037590;28;20499;-66
2023/11/29 05:39:25;;;;;;;1.63;0.60;;;19.20;55.60;;;;;;5037855;28;20053;-66
2023/11/29 05:41:50;;;;;;;0.60;0.60;;;19.20;55.70;;;;;;5036478;28;20116;-67
2023/11/29 05:44:16;;;;;;;0.57;0.50;;;19.20;55.70;;;;;;5039991;28;20033;-66
2023/11/29 05:46:43;;;;;;;0.90;0.60;;;19.20;55.80;;;;;;5036944;28;20088;-66
2023/11/29 05:49:08;;;;;;;0.90;0.60;;;19.20;55.80;;;;;;5042072;28;20060;-67
2023/11/29 05:51:35;;;;;;;0.60;0.60;;;19.20;55.80;;;;;;5018369;28;20083;-67
2023/11/29 05:54:01;;;;;;;0.88;0.60;;;19.20;55.80;;;;;;5020389;28;20035;-66
2023/11/29 05:56:27;;;;;;;0.60;0.50;;;19.10;55.80;;;;;;5035878;28;20108;-67
2023/11/29 05:58:53;;;;;;;0.80;0.50;;;19.10;55.90;;;;;;5038293;28;20028;-67
2023/11/29 06:01:19;;;;;;;0.73;0.55;;;19.10;55.90;;;;;;5039237;28;20037;-67
2023/11/29 06:03:46;;;;;;;1.13;0.77;;;19.10;55.90;;;;;;5037727;28;20072;-68
2023/11/29 06:06:12;;;;;;;1.17;0.60;;;19.10;55.90;;;;;;5036714;28;20473;-67
2023/11/29 06:08:40;;;;;;;0.93;0.60;;;19.10;56.00;;;;;;5021424;28;20124;-67
2023/11/29 06:11:07;;;;;;;1.30;0.60;;;19.10;56.00;;;;;;5037666;28;20472;-66
2023/11/29 06:13:33;;;;;;;0.57;0.40;;;19.10;56.00;;;;;;5036223;28;20478;-66
2023/11/29 06:15:59;;;;;;;0.75;0.50;;;19.10;56.00;;;;;;5037317;28;20030;-66
2023/11/29 06:18:25;;;;;;;0.63;0.50;;;19.10;56.10;;;;;;5038516;28;20029;-64
2023/11/29 06:20:51;;;;;;;0.73;0.60;;;19.10;56.10;;;;;;5020790;28;20073;-65
2023/11/29 06:23:17;;;;;;;0.70;0.50;;;19.10;56.10;;;;;;5037649;28;20528;-65
2023/11/29 06:25:43;;;;;;;0.80;0.50;;;19.10;56.10;;;;;;5036128;28;20032;-64
2023/11/29 06:28:09;;;;;;;0.50;0.50;;;19.10;56.10;;;;;;5034358;28;20041;-64
2023/11/29 06:30:34;;;;;;;0.55;0.50;;;19.10;56.20;;;;;;5037520;28;20029;-64
2023/11/29 06:33:00;;;;;;;0.40;0.40;;;19.10;56.20;;;;;;5038090;28;20495;-66
2023/11/29 06:35:25;;;;;;;0.68;0.50;;;19.10;56.20;;;;;;5037272;28;20527;-64
2023/11/29 06:37:51;;;;;;;0.47;0.47;;;19.10;56.20;;;;;;5018155;28;20041;-64
2023/11/29 06:40:16;;;;;;;0.70;0.50;;;19.00;56.10;;;;;;5018553;28;20472;-65
2023/11/29 06:42:43;;;;;;;0.68;0.50;;;19.10;56.20;;;;;;5036968;28;20146;-64
2023/11/29 06:45:10;;;;;;;0.50;0.50;;;19.10;56.20;;;;;;5037221;28;20452;-65
2023/11/29 06:47:36;;;;;;;1.05;0.50;;;19.00;56.20;;;;;;5039046;28;20156;-68
2023/11/29 06:50:05;;;;;;;2.60;0.80;;;19.10;56.70;;;;;;5037001;28;20069;-68
2023/11/29 06:52:31;;;;;;;0.98;0.70;;;19.10;58.30;;;;;;5037120;28;20041;-68
2023/11/29 06:54:57;;;;;;;0.80;0.60;;;19.40;58.60;;;;;;5019501;28;20119;-68
2023/11/29 06:57:23;;;;;;;1.52;0.70;;;19.60;58.40;;;;;;5035529;28;20127;-68
2023/11/29 06:59:49;;;;;;;0.75;0.50;;;19.80;58.30;;;;;;5034240;28;20102;-68
2023/11/29 07:02:15;;;;;;;0.82;0.60;;;20.00;58.30;;;;;;5018244;28;20486;-69
2023/11/29 07:04:44;;;;;;;1.50;0.65;;;20.10;58.30;;;;;;5037428;28;20028;-68
2023/11/29 07:07:11;;;;;;;0.70;0.60;;;20.30;58.00;;;;;;5035080;28;20029;-68
2023/11/29 07:09:36;;;;;;;0.88;0.60;;;20.40;57.40;;;;;;5020254;28;20117;-68
2023/11/29 07:12:04;;;;;;;0.90;0.60;;;20.30;57.20;;;;;;5036627;28;20025;-69
2023/11/29 07:14:30;;;;;;;0.80;0.63;;;20.20;57.40;;;;;;5036158;28;20104;-69
2023/11/29 07:16:56;;;;;;;0.55;0.45;;;20.10;57.40;;;;;;5037109;28;20150;-69
2023/11/29 07:19:22;;;;;;;0.70;0.60;;;20.10;57.40;;;;;;5036311;28;20075;-68
2023/11/29 07:21:47;;;;;;;0.82;0.50;;;20.10;57.60;;;;;;5036687;28;20050;-68
2023/11/29 07:24:13;;;;;;;1.73;0.60;;;20.10;57.80;;;;;;5037391;28;20073;-68
2023/11/29 07:26:39;;;;;;;0.65;0.60;;;20.10;58.00;;;;;;5036264;28;20515;-68
2023/11/29 07:29:04;;;;;;;1.25;0.68;;;20.10;57.90;;;;;;5036555;28;20030;-64
2023/11/29 07:31:31;;;;;;;1.20;0.60;;;20.10;58.50;;;;;;5036791;28;20031;-64
2023/11/29 07:33:57;;;;;;;0.70;0.45;;;20.10;58.60;;;;;;5039798;28;20070;-63
2023/11/29 07:36:23;;;;;;;0.80;0.60;;;20.20;58.70;;;;;;5039308;28;20025;-65
2023/11/29 07:38:49;;;;;;;0.98;0.60;;;20.20;59.00;;;;;;5036880;28;20040;-64
2023/11/29 07:41:16;;;;;;;1.20;0.70;;;20.20;58.80;;;;;;5034633;28;20025;-64
2023/11/29 07:43:42;;;;;;;0.60;0.50;;;20.20;58.90;;;;;;5035730;28;20040;-65
2023/11/29 07:46:08;;;;;;;2.10;0.68;;;20.30;58.60;;;;;;5035426;28;20029;-65
2023/11/29 07:48:33;;;;;;;1.55;0.60;;;20.20;58.60;;;;;;5034992;28;20528;-65
2023/11/29 07:50:59;;;;;;;1.55;0.85;;;20.30;58.70;;;;;;5018487;28;20022;-64
2023/11/29 07:53:25;;;;;;;0.95;0.63;;;20.30;59.10;;;;;;5034488;28;20109;-64
2023/11/29 07:55:51;;;;;;;0.98;0.60;;;20.30;58.80;;;;;;5035979;28;20108;-66
2023/11/29 07:58:17;;;;;;;1.98;0.70;;;20.40;59.10;;;;;;5035655;28;20511;-64
2023/11/29 08:00:42;;;;;;;1.30;0.70;;;20.40;59.40;;;;;;5034327;28;20032;-66
2023/11/29 08:03:08;;;;;;;2.53;0.70;;;20.40;59.00;;;;;;5017454;28;20126;-65
2023/11/29 08:05:35;;;;;;;2.80;0.68;;;20.40;58.70;;;;;;5035834;28;20456;-65
2023/11/29 08:08:02;;;;;;;0.95;0.60;;;20.40;58.70;;;;;;5036223;28;20421;-66
2023/11/29 08:10:29;;;;;;;1.35;0.60;;;20.40;58.80;;;;;;5034990;28;20032;-66
2023/11/29 08:12:54;;;;;;;1.60;0.95;;;20.50;58.60;;;;;;5034803;28;20102;-64
2023/11/29 08:15:20;;;;;;;1.20;0.70;;;20.50;58.50;;;;;;5034399;28;20030;-65
2023/11/29 08:17:46;;;;;;;1.42;0.80;;;20.50;58.10;;;;;;5035044;28;20037;-64
2023/11/29 08:20:11;;;;;;;1.98;0.80;;;20.50;57.80;;;;;;5033994;28;20029;-64
2023/11/29 08:22:37;;;;;;;1.10;0.60;;;20.50;58.70;;;;;;5037350;28;20021;-64
2023/11/29 08:25:03;;;;;;;2.03;0.77;;;20.50;58.60;;;;;;5033385;28;20438;-65
2023/11/29 08:27:29;;;;;;;1.27;0.73;;;20.60;58.60;;;;;;5020146;28;20127;-64
2023/11/29 08:29:55;;;;;;;1.35;0.60;;;20.60;58.40;;;;;;5032400;28;20117;-65
2023/11/29 08:32:20;;;;;;;1.67;0.75;;;20.60;58.20;;;;;;5033177;28;20025;-64
2023/11/29 08:34:46;;;;;;;2.10;0.90;;;20.60;58.10;;;;;;5038823;28;20442;-64
2023/11/29 08:37:12;;;;;;;1.65;0.80;;;20.60;58.40;;;;;;5036529;28;20434;-66
2023/11/29 08:39:38;;;;;;;0.80;0.50;;;20.70;58.40;;;;;;5035643;28;20025;-68
2023/11/29 08:42:04;;;;;;;2.42;0.70;;;20.70;57.90;;;;;;5034141;28;20476;-69
2023/11/29 08:44:31;;;;;;;3.13;0.70;;;20.70;57.70;;;;;;5033819;28;20070;-68
2023/11/29 08:46:57;;;;;;;1.75;0.70;;;20.60;57.50;;;;;;5033751;28;20026;-68
2023/11/29 08:49:22;;;;;;;1.30;0.75;;;20.70;58.20;;;;;;5033907;28;20036;-68
2023/11/29 08:51:48;;;;;;;1.23;0.70;;;20.70;57.40;;;;;;5035672;28;20037;-68
2023/11/29 08:54:13;;;;;;;2.80;0.90;;;20.70;58.10;;;;;;5036168;28;20036;-68
2023/11/29 08:56:40;;;;;;;1.33;0.80;;;20.70;58.30;;;;;;5037347;28;20021;-68
2023/11/29 08:59:05;;;;;;;1.13;0.77;;;20.80;58.10;;;;;;5035516;28;20439;-67
2023/11/29 09:01:34;;;;;;;2.78;0.85;;;20.80;58.30;;;;;;5034716;28;20119;-68
2023/11/29 09:04:00;;;;;;;2.40;0.90;;;20.80;57.70;;;;;;5035780;28;20030;-68
2023/11/29 09:06:25;;;;;;;1.30;0.80;;;20.80;57.70;;;;;;5020254;28;20504;-68
2023/11/29 09:08:51;;;;;;;2.22;0.90;;;20.80;56.60;;;;;;5036891;28;20097;-64
2023/11/29 09:11:17;;;;;;;1.52;0.90;;;20.70;55.90;;;;;;5040106;28;20026;-64
2023/11/29 09:13:48;;;;;;;1.83;0.90;;;20.80;55.70;;;;;;5036051;28;20036;-64
2023/11/29 09:16:14;;;;;;;3.33;0.80;;;20.70;56.10;;;;;;5038657;28;20045;-65
2023/11/29 09:18:39;;;;;;;2.05;0.90;;;20.80;55.60;;;;;;5039075;28;20042;-68
2023/11/29 09:21:05;;;;;;;2.05;1.00;;;20.80;55.30;;;;;;5039242;28;20033;-68
2023/11/29 09:23:33;;;;;;;1.65;0.90;;;20.80;55.40;;;;;;5037072;28;20385;-67
2023/11/29 09:25:59;;;;;;;1.45;0.88;;;20.70;55.20;;;;;;5037387;28;20033;-69
2023/11/29 09:28:25;;;;;;;3.20;1.20;;;20.70;55.40;;;;;;5019317;28;20473;-69
2023/11/29 09:30:50;;;;;;;1.88;1.05;;;20.70;55.40;;;;;;5020689;28;20036;-69
2023/11/29 09:33:16;;;;;;;2.28;1.02;;;20.70;55.20;;;;;;5038071;28;20389;-69
2023/11/29 09:35:42;;;;;;;2.30;1.30;;;20.80;55.10;;;;;;5038783;28;20036;-68
2023/11/29 09:38:08;;;;;;;3.38;1.00;;;20.70;55.40;;;;;;5022350;28;20017;-67
2023/11/29 09:40:34;;;;;;;2.40;1.30;;;20.70;55.10;;;;;;5039529;28;20159;-68
2023/11/29 09:43:00;;;;;;;2.35;1.10;;;20.70;55.20;;;;;;5037901;28;20484;-68
2023/11/29 09:45:26;;;;;;;2.72;1.00;;;20.70;55.00;;;;;;5036053;28;20040;-68
2023/11/29 09:47:53;;;;;;;1.77;1.00;;;20.70;55.20;;;;;;5037203;28;20022;-67
2023/11/29 09:50:19;;;;;;;3.75;1.17;;;20.70;55.30;;;;;;5038359;28;20918;-65
2023/11/29 09:52:46;;;;;;;2.20;1.00;;;20.70;55.40;;;;;;5037713;28;20411;-66
2023/11/29 09:55:12;;;;;;;1.73;0.90;;;20.70;55.80;;;;;;5040817;28;20437;-65
2023/11/29 09:57:38;;;;;;;2.10;1.20;;;20.90;56.00;;;;;;5038544;28;20025;-66
2023/11/29 10:00:06;;;;;;;2.25;1.00;;;21.10;56.00;;;;;;5040899;28;20060;-66
2023/11/29 10:02:32;;;;;;;2.88;1.05;;;21.20;56.20;;;;;;5020195;28;20142;-66
2023/11/29 10:05:00;;;;;;;2.92;1.17;;;21.40;56.20;;;;;;5038255;28;20104;-66
2023/11/29 10:07:26;;;;;;;3.20;0.90;;;21.50;56.20;;;;;;5038313;28;20105;-66
2023/11/29 10:09:54;;;;;;;2.45;0.90;;;21.60;56.30;;;;;;5033242;28;20029;-67
2023/11/29 10:12:20;;;;;;;1.25;0.85;;;21.80;56.40;;;;;;5042495;28;20067;-67
2023/11/29 10:14:46;;;;;;;2.25;0.80;;;22.00;56.30;;;;;;5026301;28;20415;-67
2023/11/29 10:17:13;;;;;;;1.45;0.80;;;22.20;56.30;;;;;;5042292;28;20014;-66
2023/11/29 10:19:39;;;;;;;1.60;0.90;;;22.40;56.00;;;;;;5039713;28;20049;-72
2023/11/29 10:22:05;;;;;;;2.97;0.95;;;22.70;55.70;;;;;;5043411;28;20060;-71
2023/11/29 10:24:30;;;;;;;3.17;1.10;;;22.80;55.90;;;;;;5037719;28;20104;-71
2023/11/29 10:26:56;;;;;;;2.25;1.00;;;22.90;55.00;;;;;;5037412;28;20037;-73
2023/11/29 10:29:22;;;;;;;2.45;0.98;;;23.00;55.20;;;;;;5039070;27;20034;-66
2023/11/29 10:31:48;;;;;;;1.80;1.00;;;23.00;55.30;;;;;;5035971;28;20139;-66
2023/11/29 10:34:15;;;;;;;2.00;0.80;;;23.10;55.70;;;;;;5037163;28;20046;-66
2023/11/29 10:36:41;;;;;;;1.55;0.80;;;23.20;55.50;;;;;;5021406;28;20370;-67
2023/11/29 10:39:16;;;;;;;1.90;0.70;;;23.20;55.80;;;;;;5039147;28;20028;-67
2023/11/29 10:41:55;;;;;;;1.80;0.75;;;23.20;56.20;;;;;;5037288;28;20033;-66
2023/11/29 10:44:22;;;;;;;;;;;23.10;56.60;;;;;;5036155;28;20429;-66
2023/11/29 10:46:50;;;;;;;0.60;0.60;;;23.00;56.60;;;;;;5019528;28;19913;-66
2023/11/29 10:49:19;;;;;;;0.85;0.73;;;23.00;56.70;;;;;;5036878;28;20384;-65
2023/11/29 10:51:48;;;;;;;2.60;1.08;;;23.00;56.90;;;;;;5037124;28;20037;-66
2023/11/29 10:54:17;;;;;;;2.00;0.75;;;23.00;57.30;;;;;;5028091;28;20025;-66
2023/11/29 10:56:43;;;;;;;1.70;0.80;;;23.00;57.40;;;;;;5037605;28;20081;-66
2023/11/29 10:59:27;;;;;;;2.17;1.00;;;23.00;57.30;;;;;;5034787;28;20104;-64
2023/11/29 11:01:57;;;;;;;2.08;1.08;;;23.00;54.40;;;;;;5035559;28;20696;-65
2023/11/29 11:04:31;;;;;;;2.20;1.20;;;23.00;52.80;;;;;;5034643;28;20109;-66
2023/11/29 11:06:57;;;;;;;2.72;1.10;;;22.90;52.50;;;;;;5036653;28;20021;-64
2023/11/29 11:09:42;;;;;;;2.30;1.20;;;22.90;51.80;;;;;;5039168;28;20107;-65
2023/11/29 11:12:08;;;;;;;2.35;1.17;;;22.80;51.50;;;;;;5036779;28;20460;-65
2023/11/29 11:14:47;;;;;;;2.30;1.20;;;22.80;51.30;;;;;;5018280;28;20056;-66
2023/11/29 11:17:18;;;;;;;2.72;1.20;;;22.70;51.30;;;;;;5026265;28;20026;-65
2023/11/29 11:19:46;;;;;;;2.85;1.27;;;22.70;51.10;;;;;;5036047;28;20040;-65
2023/11/29 11:22:14;;;;;;;2.42;1.23;;;22.60;50.80;;;;;;5035321;28;20049;-65
2023/11/29 11:25:12;;;;;;;2.72;1.23;;;22.60;51.00;;;;;;5019517;28;20637;-65
2023/11/29 11:27:47;;;;;;;3.42;1.50;;;22.60;50.90;;;;;;5035240;28;20070;-66
2023/11/29 11:30:19;;;;;;;3.95;1.55;;;22.50;50.90;;;;;;5032511;28;20033;-65
2023/11/29 11:32:56;;;;;;;4.00;1.63;;;22.50;50.90;;;;;;5038308;28;20030;-64
2023/11/29 11:35:30;;;;;;;3.40;1.60;;;22.40;50.90;;;;;;5038025;28;20365;-62
2023/11/29 11:38:00;;;;;;;3.22;1.33;;;22.40;51.00;;;;;;5041904;28;20529;-63
2023/11/29 11:40:30;;;;;;;2.97;1.30;;;22.30;51.00;;;;;;5037328;28;20014;-64
2023/11/29 11:42:57;;;;;;;2.45;1.35;;;22.30;51.00;;;;;;5038464;28;20495;-64
2023/11/29 11:45:23;;;;;;;3.47;1.58;;;22.30;51.20;;;;;;5035366;28;20533;-66
2023/11/29 11:47:50;;;;;;;3.40;1.60;;;22.20;51.20;;;;;;5037084;28;20120;-64
2023/11/29 11:50:17;;;;;;;3.03;1.45;;;22.20;51.20;;;;;;5038597;28;20035;-64
2023/11/29 11:52:43;;;;;;;2.50;1.30;;;22.20;51.20;;;;;;5044456;28;20033;-63
2023/11/29 11:55:12;;;;;;;2.53;1.35;;;22.10;51.20;;;;;;5047832;28;20118;-65
2023/11/29 11:57:43;;;;;;;3.05;1.50;;;22.10;51.30;;;;;;5044759;28;20096;-64
2023/11/29 12:00:11;;;;;;;2.92;1.35;;;22.10;51.30;;;;;;5045738;28;20047;-64
2023/11/29 12:02:38;;;;;;;2.80;1.33;;;22.10;51.40;;;;;;5044913;28;20029;-64
2023/11/29 12:05:04;;;;;;;2.63;1.50;;;22.10;51.40;;;;;;5045299;28;20033;-65
2023/11/29 12:07:30;;;;;;;3.35;1.52;;;22.00;51.50;;;;;;5045325;28;20021;-64
2023/11/29 12:09:56;;;;;;;3.33;1.40;;;22.00;51.50;;;;;;5050914;28;20496;-71
2023/11/29 12:12:23;;;;;;;2.97;1.60;;;22.00;51.60;;;;;;5049499;28;20025;-70
2023/11/29 12:14:50;;;;;;;2.72;1.35;;;21.90;51.50;;;;;;5048685;28;20117;-71
2023/11/29 12:17:20;;;;;;;2.88;1.50;;;21.90;51.60;;;;;;5053329;28;20021;-71
2023/11/29 12:19:47;;;;;;;3.08;1.42;;;21.90;51.70;;;;;;5051097;28;20078;-71
2023/11/29 12:22:14;;;;;;;3.50;1.50;;;21.90;51.70;;;;;;5037301;28;20033;-71
2023/11/29 12:24:46;;;;;;;2.90;1.58;;;21.80;51.70;;;;;;5051585;28;20029;-70
2023/11/29 12:27:17;;;;;;;3.28;1.60;;;21.80;51.70;;;;;;5050563;28;20033;-71
2023/11/29 12:29:48;;;;;;;3.53;1.50;;;21.80;51.70;;;;;;5051592;28;20041;-69
2023/11/29 12:32:15;;;;;;;3.45;1.38;;;21.70;51.70;;;;;;5050895;28;20029;-70
2023/11/29 12:34:42;;;;;;;3.20;1.50;;;21.70;51.80;;;;;;5051117;28;20040;-71
2023/11/29 12:37:12;;;;;;;3.17;1.52;;;21.70;52.30;;;;;;5052803;28;20017;-71
2023/11/29 12:39:38;;;;;;;3.70;1.65;;;21.70;51.90;;;;;;5054194;28;20021;-70
2023/11/29 12:42:05;;;;;;;2.90;1.75;;;21.70;51.90;;;;;;5056724;28;20022;-70
2023/11/29 12:44:31;;;;;;;3.38;1.60;;;21.60;52.00;;;;;;5056652;28;20032;-70